Time;durP1;ratioP1;P1;durP2;ratioP2;P2;SDS_P1;SDS_P2;PMS_P1;PMS_P2;Temp;Humidity;BMP_temperature;BMP_pressure;BME280_temperature;BME280_humidity;BME280_pressure;Samples;Min_cycle;Max_cycle;Signal;HPM_P1;HPM_P2
2023/12/26 00:01:48;;;;;;;73.80;6.65;;;;;;;;;;5028722;28;20060;-85
2023/12/26 00:04:15;;;;;;;42.78;5.60;;;;;;;;;;5032001;28;20127;-83
2023/12/26 00:06:45;;;;;;;47.83;5.82;;;;;;;;;;5028745;28;20511;-84
2023/12/26 00:09:13;;;;;;;70.25;6.40;;;;;;;;;;5027464;28;20119;-85
2023/12/26 00:11:41;;;;;;;39.45;4.47;;;;;;;;;;5028745;28;20497;-85
2023/12/26 00:14:07;;;;;;;47.83;5.88;;;;;;;;;;5026415;28;20057;-85
2023/12/26 00:16:34;;;;;;;76.85;7.10;;;;;;;;;;5027844;28;20555;-85
2023/12/26 00:19:00;;;;;;;46.42;6.30;;;;;;;;;;5028530;28;20576;-85
2023/12/26 00:21:27;;;;;;;68.35;7.45;;;;;;;;;;5028586;28;20038;-85
2023/12/26 00:23:54;;;;;;;91.35;9.10;;;;;;;;;;5028023;28;20128;-84
2023/12/26 00:26:21;;;;;;;69.63;6.70;;;;;;;;;;5028009;28;20045;-85
2023/12/26 00:28:49;;;;;;;47.03;5.18;;;;;;;;;;5024341;28;20046;-85
2023/12/26 00:31:16;;;;;;;101.93;8.48;;;;;;;;;;5024382;28;20041;-85
2023/12/26 00:33:42;;;;;;;48.38;5.85;;;;;;;;;;5026951;28;20132;-85
2023/12/26 00:36:13;;;;;;;46.22;5.57;;;;;;;;;;5010430;28;20041;-85
2023/12/26 00:38:39;;;;;;;69.93;6.20;;;;;;;;;;5026844;28;20041;-84
2023/12/26 00:41:06;;;;;;;51.40;5.43;;;;;;;;;;5026679;28;20467;-85
2023/12/26 00:43:32;;;;;;;74.88;7.70;;;;;;;;;;5026535;28;20390;-85
2023/12/26 00:46:00;;;;;;;104.18;8.65;;;;;;;;;;5025285;28;20045;-85
2023/12/26 00:48:27;;;;;;;75.45;8.98;;;;;;;;;;5030649;28;20096;-85
2023/12/26 00:50:55;;;;;;;48.50;5.47;;;;;;;;;;5032238;28;20488;-85
2023/12/26 00:53:22;;;;;;;90.07;7.43;;;;;;;;;;5029628;28;20077;-86
2023/12/26 00:55:49;;;;;;;60.78;5.85;;;;;;;;;;5025812;28;20045;-85
2023/12/26 00:58:17;;;;;;;50.70;5.35;;;;;;;;;;5028338;28;20092;-85
2023/12/26 01:00:43;;;;;;;51.50;5.32;;;;;;;;;;5046243;28;20095;-85
2023/12/26 01:03:11;;;;;;;75.30;6.10;;;;;;;;;;5030750;28;20045;-85
2023/12/26 01:05:37;;;;;;;69.15;7.45;;;;;;;;;;5046742;28;20411;-85
2023/12/26 01:08:05;;;;;;;63.30;7.43;;;;;;;;;;5030497;28;20045;-85
2023/12/26 01:10:33;;;;;;;87.45;7.90;;;;;;;;;;5029637;28;20103;-85
2023/12/26 01:13:02;;;;;;;64.63;5.97;;;;;;;;;;5031486;28;20037;-85
2023/12/26 01:15:29;;;;;;;69.63;6.70;;;;;;;;;;5029829;28;20045;-85
2023/12/26 01:17:56;;;;;;;64.53;6.18;;;;;;;;;;5029957;28;20045;-85
2023/12/26 01:20:23;;;;;;;58.53;6.07;;;;;;;;;;5030866;28;20056;-85
2023/12/26 01:22:50;;;;;;;57.72;6.35;;;;;;;;;;5029848;28;20497;-85
2023/12/26 01:25:17;;;;;;;48.88;6.15;;;;;;;;;;5043954;28;20056;-85
2023/12/26 01:27:43;;;;;;;67.30;6.90;;;;;;;;;;5028597;28;20061;-85
2023/12/26 01:30:10;;;;;;;61.97;5.97;;;;;;;;;;5030739;28;20052;-85
2023/12/26 01:32:37;;;;;;;54.90;5.40;;;;;;;;;;5029708;28;20050;-85
2023/12/26 01:35:03;;;;;;;61.17;5.53;;;;;;;;;;5046372;28;20756;-86
2023/12/26 01:37:30;;;;;;;77.32;7.25;;;;;;;;;;5030656;28;20041;-84
2023/12/26 01:39:57;;;;;;;99.70;9.27;;;;;;;;;;5029492;28;20045;-85
2023/12/26 01:42:23;;;;;;;59.90;5.88;;;;;;;;;;5028069;28;20060;-85
2023/12/26 01:44:50;;;;;;;71.45;6.30;;;;;;;;;;5028377;28;20103;-85
2023/12/26 01:47:17;;;;;;;49.97;5.53;;;;;;;;;;5046421;28;20037;-85
2023/12/26 01:49:44;;;;;;;32.40;4.00;;;;;;;;;;5030434;28;20129;-85
2023/12/26 01:52:12;;;;;;;98.13;7.40;;;;;;;;;;5028790;28;20049;-85
2023/12/26 01:54:38;;;;;;;99.07;7.57;;;;;;;;;;5029403;28;20053;-85
2023/12/26 01:57:06;;;;;;;60.35;5.45;;;;;;;;;;5030078;28;20072;-85
2023/12/26 01:59:35;;;;;;;80.97;7.07;;;;;;;;;;5026486;28;20412;-85
2023/12/26 02:04:58;;;;;;;55.95;6.03;;;;;;;;;;5033712;28;20485;-79
2023/12/26 02:07:25;;;;;;;65.00;6.75;;;;;;;;;;5035149;28;20487;-79
2023/12/26 02:09:52;;;;;;;64.03;7.35;;;;;;;;;;5020689;28;20517;-79
2023/12/26 02:12:19;;;;;;;48.80;4.80;;;;;;;;;;5022739;28;20119;-79
2023/12/26 02:14:47;;;;;;;32.45;4.80;;;;;;;;;;5026895;28;20169;-78
2023/12/26 02:17:24;;;;;;;65.20;5.25;;;;;;;;;;5027670;28;20119;-78
2023/12/26 02:19:51;;;;;;;46.50;5.07;;;;;;;;;;5033526;28;20087;-80
2023/12/26 02:22:18;;;;;;;44.50;4.80;;;;;;;;;;5032277;28;20045;-80
2023/12/26 02:24:44;;;;;;;90.18;7.03;;;;;;;;;;5022316;28;20077;-79
2023/12/26 02:27:14;;;;;;;66.15;7.13;;;;;;;;;;5043209;28;20088;-80
2023/12/26 02:29:41;;;;;;;52.92;5.05;;;;;;;;;;5045513;28;20041;-80
2023/12/26 02:32:09;;;;;;;93.55;7.78;;;;;;;;;;5018130;28;20057;-79
2023/12/26 02:34:36;;;;;;;41.95;4.85;;;;;;;;;;5034352;28;20442;-80
2023/12/26 02:37:03;;;;;;;57.05;6.03;;;;;;;;;;5042101;28;20134;-78
2023/12/26 02:39:30;;;;;;;110.35;8.65;;;;;;;;;;5041172;28;20099;-80
2023/12/26 02:41:56;;;;;;;60.45;6.47;;;;;;;;;;5045117;28;20135;-80
2023/12/26 02:44:23;;;;;;;68.43;5.78;;;;;;;;;;5059418;28;20045;-81
2023/12/26 02:46:49;;;;;;;71.63;5.50;;;;;;;;;;5028352;28;20063;-80
2023/12/26 02:49:16;;;;;;;53.65;5.05;;;;;;;;;;5017252;28;20561;-80
2023/12/26 02:51:43;;;;;;;63.55;4.95;;;;;;;;;;5038935;28;20044;-80
2023/12/26 02:54:09;;;;;;;89.05;7.22;;;;;;;;;;5040435;28;20392;-79
2023/12/26 02:56:36;;;;;;;64.22;6.07;;;;;;;;;;5045999;28;20036;-79
2023/12/26 02:59:03;;;;;;;100.05;7.70;;;;;;;;;;5021759;28;20037;-80
2023/12/26 03:01:30;;;;;;;88.20;6.93;;;;;;;;;;5033468;28;20395;-79
2023/12/26 03:03:57;;;;;;;68.93;6.32;;;;;;;;;;5037025;28;20077;-80
2023/12/26 03:06:23;;;;;;;63.53;5.53;;;;;;;;;;5040973;28;20041;-80
2023/12/26 03:08:50;;;;;;;32.60;3.88;;;;;;;;;;5007233;28;20037;-79
2023/12/26 03:11:17;;;;;;;51.90;5.25;;;;;;;;;;5028342;28;20045;-80
2023/12/26 03:13:43;;;;;;;85.30;6.60;;;;;;;;;;5013975;28;20447;-80
2023/12/26 03:16:10;;;;;;;49.05;4.80;;;;;;;;;;5016514;28;20053;-79
2023/12/26 03:18:37;;;;;;;52.33;5.72;;;;;;;;;;5020192;28;20496;-79
2023/12/26 03:21:04;;;;;;;59.20;5.95;;;;;;;;;;5021950;28;20040;-80
2023/12/26 03:23:30;;;;;;;71.18;6.13;;;;;;;;;;5045109;28;20037;-79
2023/12/26 03:25:57;;;;;;;64.25;6.57;;;;;;;;;;5022534;28;20502;-80
2023/12/26 03:28:24;;;;;;;56.22;5.68;;;;;;;;;;5032434;28;20090;-80
2023/12/26 03:30:50;;;;;;;59.45;5.88;;;;;;;;;;5035925;28;20037;-80
2023/12/26 03:33:17;;;;;;;88.70;8.10;;;;;;;;;;5037348;28;20041;-80
2023/12/26 03:35:46;;;;;;;52.75;4.60;;;;;;;;;;5042393;28;20041;-80
2023/12/26 03:38:15;;;;;;;41.90;4.20;;;;;;;;;;5028536;28;20037;-79
2023/12/26 03:40:42;;;;;;;34.38;3.97;;;;;;;;;;5017581;28;20499;-80
2023/12/26 03:43:08;;;;;;;59.90;7.47;;;;;;;;;;5033394;28;20068;-80
2023/12/26 03:45:36;;;;;;;67.30;6.20;;;;;;;;;;5026033;28;20045;-80
2023/12/26 03:48:05;;;;;;;44.90;4.78;;;;;;;;;;5021493;28;20140;-80
2023/12/26 03:50:33;;;;;;;83.15;8.45;;;;;;;;;;5044126;28;20045;-80
2023/12/26 03:52:59;;;;;;;80.93;7.72;;;;;;;;;;5023677;28;20380;-80
2023/12/26 03:55:26;;;;;;;61.67;6.25;;;;;;;;;;5014068;28;20156;-80
2023/12/26 03:57:52;;;;;;;59.97;5.88;;;;;;;;;;5040113;28;20078;-80
2023/12/26 04:00:19;;;;;;;51.45;5.00;;;;;;;;;;5020056;28;20045;-80
2023/12/26 04:02:46;;;;;;;48.70;4.97;;;;;;;;;;5041526;28;20119;-80
2023/12/26 04:05:14;;;;;;;73.60;7.00;;;;;;;;;;5027445;28;20421;-80
2023/12/26 04:07:41;;;;;;;63.03;6.15;;;;;;;;;;5016422;28;20037;-79
2023/12/26 04:10:08;;;;;;;37.67;4.63;;;;;;;;;;5014636;28;20052;-80
2023/12/26 04:12:35;;;;;;;73.15;8.00;;;;;;;;;;5018459;28;20106;-80
2023/12/26 04:15:02;;;;;;;69.38;6.40;;;;;;;;;;5039314;28;20037;-80
2023/12/26 04:17:29;;;;;;;44.28;5.90;;;;;;;;;;5025981;28;20125;-80
2023/12/26 04:19:56;;;;;;;65.85;6.03;;;;;;;;;;5054286;28;20036;-82
2023/12/26 04:22:22;;;;;;;64.28;6.97;;;;;;;;;;5030022;28;20121;-80
2023/12/26 04:24:49;;;;;;;48.53;5.55;;;;;;;;;;5011573;28;20167;-79
2023/12/26 04:27:15;;;;;;;51.33;5.38;;;;;;;;;;5012990;28;20075;-80
2023/12/26 04:29:43;;;;;;;39.17;5.35;;;;;;;;;;5012450;28;20046;-80
2023/12/26 04:32:12;;;;;;;56.00;6.75;;;;;;;;;;5015167;28;20056;-79
2023/12/26 04:34:39;;;;;;;59.75;6.25;;;;;;;;;;5015508;28;20052;-80
2023/12/26 04:37:06;;;;;;;67.03;8.27;;;;;;;;;;5015666;28;20049;-80
2023/12/26 04:39:32;;;;;;;51.72;5.63;;;;;;;;;;5017450;28;20091;-80
2023/12/26 04:42:00;;;;;;;75.15;7.75;;;;;;;;;;5017844;28;20496;-80
2023/12/26 04:44:26;;;;;;;71.05;8.40;;;;;;;;;;5017855;28;20088;-81
2023/12/26 04:46:53;;;;;;;68.90;7.45;;;;;;;;;;5037561;28;20049;-80
2023/12/26 04:49:20;;;;;;;67.07;7.72;;;;;;;;;;5037806;28;20064;-80
2023/12/26 04:51:46;;;;;;;63.58;7.80;;;;;;;;;;5037643;28;20049;-80
2023/12/26 04:54:13;;;;;;;60.03;6.72;;;;;;;;;;5038547;28;20402;-80
2023/12/26 04:56:43;;;;;;;70.65;7.20;;;;;;;;;;5022087;28;20743;-80
2023/12/26 04:59:11;;;;;;;72.45;7.90;;;;;;;;;;5022854;28;20048;-80
2023/12/26 05:01:42;;;;;;;38.38;5.70;;;;;;;;;;5024940;28;20140;-79
2023/12/26 05:04:12;;;;;;;68.72;8.27;;;;;;;;;;5024496;28;20053;-79
2023/12/26 05:06:39;;;;;;;108.38;9.18;;;;;;;;;;5025748;28;20045;-79
2023/12/26 05:09:06;;;;;;;84.38;8.25;;;;;;;;;;5044361;28;20500;-80
2023/12/26 05:11:33;;;;;;;51.47;6.60;;;;;;;;;;5027821;28;20128;-79
2023/12/26 05:14:00;;;;;;;121.78;11.57;;;;;;;;;;5027711;28;20045;-79
2023/12/26 05:16:28;;;;;;;62.67;7.03;;;;;;;;;;5029073;28;20053;-79
2023/12/26 05:18:54;;;;;;;70.85;8.18;;;;;;;;;;5009952;28;20500;-79
2023/12/26 05:21:22;;;;;;;81.05;9.43;;;;;;;;;;5028529;28;20042;-79
2023/12/26 05:23:49;;;;;;;58.75;7.63;;;;;;;;;;5031453;28;20049;-80
2023/12/26 05:26:16;;;;;;;63.35;7.82;;;;;;;;;;5012175;28;20055;-79
2023/12/26 05:28:44;;;;;;;101.50;8.70;;;;;;;;;;5012522;28;20137;-79
2023/12/26 05:31:11;;;;;;;80.03;8.13;;;;;;;;;;5013050;28;20064;-80
2023/12/26 05:33:37;;;;;;;57.83;6.55;;;;;;;;;;5034691;28;20052;-80
2023/12/26 05:36:07;;;;;;;54.90;6.22;;;;;;;;;;5019750;28;20045;-80
2023/12/26 05:38:35;;;;;;;80.28;7.30;;;;;;;;;;5020981;28;20141;-80
2023/12/26 05:41:04;;;;;;;76.93;6.97;;;;;;;;;;5021404;28;20072;-81
2023/12/26 05:43:31;;;;;;;69.95;6.22;;;;;;;;;;5022253;28;20111;-80
2023/12/26 05:46:02;;;;;;;63.65;6.88;;;;;;;;;;5022234;28;20045;-80
2023/12/26 05:48:29;;;;;;;87.30;8.18;;;;;;;;;;5048856;28;20042;-80
2023/12/26 05:50:55;;;;;;;104.72;8.38;;;;;;;;;;5024231;28;20048;-80
2023/12/26 05:53:23;;;;;;;50.17;5.72;;;;;;;;;;5022715;28;20494;-80
2023/12/26 05:55:50;;;;;;;70.05;6.22;;;;;;;;;;5043553;28;20601;-80
2023/12/26 05:58:17;;;;;;;84.40;7.88;;;;;;;;;;5026434;28;20044;-80
2023/12/26 06:00:43;;;;;;;53.17;6.53;;;;;;;;;;5027397;28;20060;-80
2023/12/26 06:03:11;;;;;;;92.15;9.15;;;;;;;;;;5027901;28;20075;-81
2023/12/26 06:05:38;;;;;;;77.85;7.55;;;;;;;;;;5029072;28;20751;-81
2023/12/26 06:08:04;;;;;;;55.83;7.30;;;;;;;;;;5029956;28;20052;-81
2023/12/26 06:10:31;;;;;;;71.75;7.28;;;;;;;;;;5030608;28;20128;-81
2023/12/26 06:12:58;;;;;;;94.85;8.27;;;;;;;;;;5031906;28;20033;-81
2023/12/26 06:15:24;;;;;;;50.88;5.78;;;;;;;;;;5005515;28;20495;-81
2023/12/26 06:17:51;;;;;;;63.58;7.22;;;;;;;;;;5028749;28;20033;-81
2023/12/26 06:20:21;;;;;;;75.25;7.97;;;;;;;;;;5013119;28;20132;-81
2023/12/26 06:22:48;;;;;;;53.67;5.85;;;;;;;;;;5033947;28;20045;-81
2023/12/26 06:25:14;;;;;;;50.47;6.70;;;;;;;;;;5035081;28;20049;-81
2023/12/26 06:27:41;;;;;;;93.80;9.90;;;;;;;;;;5016476;28;20120;-81
2023/12/26 06:30:10;;;;;;;66.05;8.70;;;;;;;;;;5034500;28;20041;-81
2023/12/26 06:32:37;;;;;;;77.78;8.60;;;;;;;;;;5018053;28;20127;-81
2023/12/26 06:35:04;;;;;;;118.57;10.20;;;;;;;;;;5018294;28;20451;-81
2023/12/26 06:37:31;;;;;;;68.63;7.70;;;;;;;;;;5019677;28;20045;-81
2023/12/26 06:39:58;;;;;;;49.83;6.47;;;;;;;;;;5044366;28;20389;-81
2023/12/26 06:42:26;;;;;;;97.78;8.95;;;;;;;;;;5006493;28;20041;-81
2023/12/26 06:44:53;;;;;;;47.47;5.82;;;;;;;;;;5019985;28;20132;-81
2023/12/26 06:47:19;;;;;;;65.55;6.65;;;;;;;;;;5022204;28;20060;-81
2023/12/26 06:49:46;;;;;;;76.30;7.65;;;;;;;;;;5040858;28;20041;-81
2023/12/26 06:52:16;;;;;;;40.22;5.07;;;;;;;;;;5039671;28;20040;-81
2023/12/26 06:54:43;;;;;;;57.25;6.40;;;;;;;;;;5024581;28;20041;-81
2023/12/26 06:57:15;;;;;;;80.20;7.40;;;;;;;;;;5043301;28;20036;-81
2023/12/26 06:59:43;;;;;;;55.95;6.75;;;;;;;;;;5025991;28;20045;-81
2023/12/26 07:02:10;;;;;;;45.30;6.05;;;;;;;;;;5045029;28;20045;-81
2023/12/26 07:04:37;;;;;;;87.97;7.88;;;;;;;;;;5011635;28;20045;-80
2023/12/26 07:07:04;;;;;;;66.25;7.10;;;;;;;;;;5046541;28;20068;-81
2023/12/26 07:09:31;;;;;;;39.03;4.90;;;;;;;;;;5047757;28;20037;-81
2023/12/26 07:11:57;;;;;;;91.40;8.05;;;;;;;;;;5041014;28;20063;-80
2023/12/26 07:14:24;;;;;;;46.25;7.25;;;;;;;;;;5040844;28;20122;-81
2023/12/26 07:16:50;;;;;;;52.15;5.93;;;;;;;;;;5029544;28;20037;-80
2023/12/26 07:19:17;;;;;;;58.45;7.20;;;;;;;;;;5029738;28;20047;-80
2023/12/26 07:21:45;;;;;;;42.35;6.30;;;;;;;;;;5031454;28;20049;-81
2023/12/26 07:24:12;;;;;;;54.90;6.72;;;;;;;;;;5031715;28;20124;-80
2023/12/26 07:26:39;;;;;;;87.72;9.02;;;;;;;;;;5032615;28;20038;-80
2023/12/26 07:29:05;;;;;;;75.22;8.68;;;;;;;;;;5033472;28;20519;-80
2023/12/26 07:31:32;;;;;;;46.35;6.50;;;;;;;;;;5017066;28;20403;-81
2023/12/26 07:34:02;;;;;;;84.45;8.15;;;;;;;;;;5035129;28;20545;-80
2023/12/26 07:36:29;;;;;;;63.50;7.13;;;;;;;;;;5033140;28;20540;-81
2023/12/26 07:38:57;;;;;;;61.20;7.45;;;;;;;;;;5034899;28;20531;-81
2023/12/26 07:41:23;;;;;;;83.95;7.57;;;;;;;;;;5037343;28;20048;-81
2023/12/26 07:43:52;;;;;;;67.22;7.55;;;;;;;;;;5038425;28;20061;-81
2023/12/26 07:46:20;;;;;;;57.80;7.68;;;;;;;;;;5037996;28;20080;-81
2023/12/26 07:48:47;;;;;;;75.93;9.20;;;;;;;;;;5039755;28;20459;-82
2023/12/26 07:51:14;;;;;;;68.10;11.45;;;;;;;;;;5040746;28;20081;-81
2023/12/26 07:53:41;;;;;;;51.60;10.25;;;;;;;;;;5039046;28;20039;-82
2023/12/26 07:56:07;;;;;;;99.47;12.73;;;;;;;;;;5042265;28;20048;-82
2023/12/26 07:58:34;;;;;;;81.07;10.82;;;;;;;;;;5037917;28;20590;-82
2023/12/26 08:01:02;;;;;;;49.53;6.82;;;;;;;;;;5044552;28;20124;-83
2023/12/26 08:03:28;;;;;;;82.55;8.93;;;;;;;;;;5045081;28;20057;-82
2023/12/26 08:05:56;;;;;;;63.78;7.57;;;;;;;;;;5042668;28;20044;-81
2023/12/26 08:08:23;;;;;;;58.10;7.18;;;;;;;;;;5046513;28;20036;-81
2023/12/26 08:10:49;;;;;;;80.85;9.40;;;;;;;;;;5044069;28;20515;-82
2023/12/26 08:13:16;;;;;;;44.08;6.30;;;;;;;;;;5036642;28;20084;-81
2023/12/26 08:15:43;;;;;;;60.40;6.88;;;;;;;;;;5028632;28;20040;-81
2023/12/26 08:18:09;;;;;;;91.05;8.05;;;;;;;;;;5029760;28;20566;-81
2023/12/26 08:20:37;;;;;;;47.05;6.05;;;;;;;;;;5013055;28;20400;-81
2023/12/26 08:23:03;;;;;;;61.03;6.00;;;;;;;;;;5013986;28;20099;-81
2023/12/26 08:25:30;;;;;;;74.78;6.20;;;;;;;;;;5032608;28;20130;-81
2023/12/26 08:27:57;;;;;;;79.57;7.00;;;;;;;;;;5031732;28;20491;-81
2023/12/26 08:30:23;;;;;;;67.18;6.03;;;;;;;;;;5033140;28;20506;-81
2023/12/26 08:32:50;;;;;;;54.63;5.40;;;;;;;;;;5034186;28;20040;-81
2023/12/26 08:35:17;;;;;;;43.58;4.63;;;;;;;;;;5035517;28;20033;-81
2023/12/26 08:37:43;;;;;;;38.97;4.50;;;;;;;;;;5036991;28;20048;-81
2023/12/26 08:40:10;;;;;;;73.07;6.32;;;;;;;;;;5037434;28;20044;-81
2023/12/26 08:42:36;;;;;;;49.88;5.15;;;;;;;;;;5038042;28;20458;-81
2023/12/26 08:45:04;;;;;;;50.40;5.13;;;;;;;;;;5037485;28;20131;-82
2023/12/26 08:47:30;;;;;;;75.10;6.07;;;;;;;;;;5039859;28;20059;-81
2023/12/26 08:49:59;;;;;;;75.82;6.63;;;;;;;;;;5039097;28;20069;-81
2023/12/26 08:52:26;;;;;;;39.78;4.43;;;;;;;;;;5038588;28;20041;-81
2023/12/26 08:54:52;;;;;;;82.55;6.57;;;;;;;;;;5024387;28;20058;-80
2023/12/26 08:57:19;;;;;;;55.97;5.65;;;;;;;;;;5042614;28;20045;-81
2023/12/26 08:59:45;;;;;;;61.17;5.57;;;;;;;;;;5043013;28;20037;-81
2023/12/26 09:02:12;;;;;;;34.05;4.40;;;;;;;;;;5044649;28;20060;-81
2023/12/26 09:04:38;;;;;;;48.58;5.18;;;;;;;;;;5027192;28;20102;-81
2023/12/26 09:07:05;;;;;;;40.85;4.40;;;;;;;;;;5043716;28;20048;-81
2023/12/26 09:09:32;;;;;;;57.20;4.53;;;;;;;;;;5050137;28;20590;-81
2023/12/26 09:11:59;;;;;;;55.13;4.63;;;;;;;;;;5031773;28;20048;-80
2023/12/26 09:14:26;;;;;;;51.90;4.20;;;;;;;;;;5031443;28;20488;-81
2023/12/26 09:16:52;;;;;;;44.70;3.47;;;;;;;;;;5033414;28;20073;-81
2023/12/26 09:19:20;;;;;;;55.05;4.25;;;;;;;;;;5033998;28;20102;-81
2023/12/26 09:21:47;;;;;;;54.38;4.43;;;;;;;;;;5035093;28;20164;-81
2023/12/26 09:24:13;;;;;;;33.85;3.42;;;;;;;;;;5035736;28;20104;-80
2023/12/26 09:26:40;;;;;;;37.47;3.80;;;;;;;;;;5036486;28;20572;-81
2023/12/26 09:29:08;;;;;;;57.42;5.45;;;;;;;;;;5036806;28;20056;-81
2023/12/26 09:31:34;;;;;;;44.38;3.70;;;;;;;;;;5038283;28;20507;-81
2023/12/26 09:34:01;;;;;;;53.25;4.22;;;;;;;;;;5039278;28;20067;-81
2023/12/26 09:36:28;;;;;;;54.00;4.97;;;;;;;;;;5040184;28;20095;-81
2023/12/26 09:38:54;;;;;;;20.63;2.45;;;;;;;;;;5040404;28;20042;-81
2023/12/26 09:41:27;;;;;;;77.47;6.07;;;;;;;;;;5040456;28;20040;-81
2023/12/26 09:43:54;;;;;;;79.03;6.28;;;;;;;;;;5041355;28;20045;-81
2023/12/26 09:46:20;;;;;;;50.35;4.95;;;;;;;;;;5022807;28;20572;-81
2023/12/26 09:48:47;;;;;;;21.25;3.83;;;;;;;;;;5043474;28;20060;-81
2023/12/26 09:51:18;;;;;;;69.80;7.95;;;;;;;;;;5044298;28;20045;-82
2023/12/26 09:53:46;;;;;;;93.65;7.70;;;;;;;;;;5042211;28;20036;-82
2023/12/26 09:56:13;;;;;;;27.70;4.22;;;;;;;;;;5046203;28;20041;-82
2023/12/26 09:58:43;;;;;;;59.97;5.25;;;;;;;;;;5046782;28;20056;-81
2023/12/26 10:01:13;;;;;;;77.30;6.00;;;;;;;;;;5029542;28;20415;-82
2023/12/26 10:03:41;;;;;;;42.50;4.32;;;;;;;;;;5047934;28;20051;-81
2023/12/26 10:06:08;;;;;;;47.15;5.13;;;;;;;;;;5049166;28;20037;-81
2023/12/26 10:08:35;;;;;;;81.57;6.75;;;;;;;;;;5043326;28;20095;-81
2023/12/26 10:11:02;;;;;;;39.85;4.30;;;;;;;;;;5037294;28;20119;-81
2023/12/26 10:13:41;;;;;;;61.28;5.05;;;;;;;;;;5039508;28;20120;-81
2023/12/26 10:16:07;;;;;;;62.28;5.20;;;;;;;;;;5035124;28;20076;-80
2023/12/26 10:18:34;;;;;;;44.50;4.95;;;;;;;;;;5039632;28;20034;-81
2023/12/26 10:21:01;;;;;;;45.95;5.50;;;;;;;;;;5034093;28;20044;-81
2023/12/26 10:23:28;;;;;;;39.72;4.13;;;;;;;;;;5035483;28;20067;-81
2023/12/26 10:25:55;;;;;;;65.30;5.47;;;;;;;;;;5036394;28;20539;-81
2023/12/26 10:28:21;;;;;;;43.17;4.15;;;;;;;;;;5037148;28;20037;-81
2023/12/26 10:30:48;;;;;;;40.20;4.22;;;;;;;;;;5037437;28;20130;-81
2023/12/26 10:33:22;;;;;;;30.45;4.72;;;;;;;;;;5038613;28;20143;-81
2023/12/26 10:36:05;;;;;;;61.65;6.45;;;;;;;;;;5036483;28;20115;-82
2023/12/26 10:38:32;;;;;;;58.83;6.05;;;;;;;;;;5038783;28;20041;-81
2023/12/26 10:41:00;;;;;;;67.75;7.80;;;;;;;;;;5038360;28;20116;-81
2023/12/26 10:43:28;;;;;;;59.67;7.55;;;;;;;;;;5041238;28;20041;-81
2023/12/26 10:45:59;;;;;;;52.58;7.00;;;;;;;;;;5041478;28;20046;-81
2023/12/26 10:48:27;;;;;;;77.10;6.82;;;;;;;;;;5042594;28;20128;-81
2023/12/26 10:50:55;;;;;;;66.07;5.25;;;;;;;;;;5043782;28;20980;-81
2023/12/26 10:53:25;;;;;;;65.20;6.88;;;;;;;;;;5041039;28;20079;-81
2023/12/26 10:55:54;;;;;;;107.93;8.15;;;;;;;;;;5045423;28;20112;-81
2023/12/26 10:58:29;;;;;;;51.72;5.22;;;;;;;;;;5046223;28;20459;-81
2023/12/26 11:00:56;;;;;;;36.38;4.22;;;;;;;;;;5028912;28;20044;-80
2023/12/26 11:03:23;;;;;;;72.65;6.15;;;;;;;;;;5044370;28;20060;-80
2023/12/26 11:05:50;;;;;;;68.47;5.57;;;;;;;;;;5047433;28;20045;-81
2023/12/26 11:08:17;;;;;;;38.05;3.78;;;;;;;;;;5035474;28;20121;-81
2023/12/26 11:10:44;;;;;;;87.45;6.57;;;;;;;;;;5029747;28;20037;-81
2023/12/26 11:13:10;;;;;;;65.20;5.30;;;;;;;;;;5031146;28;20508;-81
2023/12/26 11:15:37;;;;;;;37.80;3.28;;;;;;;;;;5031669;28;20053;-81
2023/12/26 11:18:04;;;;;;;73.10;5.28;;;;;;;;;;5034918;28;20049;-81
2023/12/26 11:20:33;;;;;;;47.97;4.30;;;;;;;;;;5018293;28;20083;-81
2023/12/26 11:23:00;;;;;;;58.85;4.53;;;;;;;;;;5029691;28;20038;-81
2023/12/26 11:25:27;;;;;;;64.75;4.95;;;;;;;;;;5034802;28;20048;-81
2023/12/26 11:27:53;;;;;;;61.58;5.75;;;;;;;;;;5036007;28;20064;-81
2023/12/26 11:30:20;;;;;;;36.17;4.00;;;;;;;;;;5039366;28;20063;-81
2023/12/26 11:32:47;;;;;;;87.55;7.25;;;;;;;;;;5019737;28;20037;-81
2023/12/26 11:35:13;;;;;;;71.18;5.78;;;;;;;;;;5020411;28;20514;-81
2023/12/26 11:37:40;;;;;;;30.90;3.45;;;;;;;;;;5020301;28;20155;-81
2023/12/26 11:40:06;;;;;;;61.45;5.18;;;;;;;;;;5048563;28;20076;-81
2023/12/26 11:42:33;;;;;;;58.65;5.18;;;;;;;;;;5040936;28;20096;-81
2023/12/26 11:45:01;;;;;;;82.15;6.30;;;;;;;;;;5040715;28;20037;-81
2023/12/26 11:47:28;;;;;;;90.38;7.05;;;;;;;;;;5042051;28;20052;-81
2023/12/26 11:49:54;;;;;;;62.85;5.85;;;;;;;;;;5043115;28;20063;-81
2023/12/26 11:52:21;;;;;;;53.78;4.55;;;;;;;;;;5040028;28;20045;-81
2023/12/26 11:54:48;;;;;;;99.63;7.32;;;;;;;;;;5026435;28;20045;-81
2023/12/26 11:57:14;;;;;;;41.13;4.18;;;;;;;;;;5027851;28;20506;-82
2023/12/26 11:59:42;;;;;;;44.28;4.43;;;;;;;;;;5042784;28;20483;-82
2023/12/26 12:02:08;;;;;;;86.43;6.88;;;;;;;;;;5046923;28;20044;-81
2023/12/26 12:04:35;;;;;;;57.33;5.18;;;;;;;;;;5047305;28;20056;-81
2023/12/26 12:07:14;;;;;;;45.10;3.90;;;;;;;;;;5032766;28;20502;-81
2023/12/26 12:09:40;;;;;;;38.65;4.03;;;;;;;;;;5031065;28;20038;-81
2023/12/26 12:12:07;;;;;;;27.75;3.70;;;;;;;;;;5030789;28;20041;-82
2023/12/26 12:14:34;;;;;;;46.17;4.60;;;;;;;;;;5030585;28;20046;-81
2023/12/26 12:17:10;;;;;;;62.85;5.18;;;;;;;;;;5027778;28;20042;-81
2023/12/26 12:19:37;;;;;;;49.35;4.95;;;;;;;;;;5032603;28;20045;-81
2023/12/26 12:22:04;;;;;;;74.18;6.57;;;;;;;;;;5033668;28;20041;-81
2023/12/26 12:24:32;;;;;;;56.08;5.65;;;;;;;;;;5024754;28;20045;-81
2023/12/26 12:27:04;;;;;;;52.08;4.78;;;;;;;;;;5034960;28;20041;-81
2023/12/26 12:29:50;;;;;;;95.32;7.70;;;;;;;;;;5032961;28;20144;-81
2023/12/26 12:32:17;;;;;;;62.35;5.22;;;;;;;;;;5035430;28;20051;-81
2023/12/26 12:35:02;;;;;;;50.67;4.60;;;;;;;;;;5035936;28;20491;-81
2023/12/26 12:37:29;;;;;;;45.10;4.35;;;;;;;;;;5038041;28;20080;-80
2023/12/26 12:39:56;;;;;;;87.38;7.05;;;;;;;;;;5039397;28;20061;-80
2023/12/26 12:42:22;;;;;;;35.88;4.03;;;;;;;;;;5022537;28;20076;-81
2023/12/26 12:44:49;;;;;;;54.05;4.85;;;;;;;;;;5025310;28;20063;-81
2023/12/26 12:47:16;;;;;;;85.40;6.32;;;;;;;;;;5045770;28;20052;-81
2023/12/26 12:49:43;;;;;;;35.97;4.20;;;;;;;;;;5046544;28;20037;-80
2023/12/26 12:52:10;;;;;;;32.97;3.80;;;;;;;;;;5049957;28;20048;-80
2023/12/26 12:54:36;;;;;;;71.22;5.90;;;;;;;;;;5048301;28;20064;-80
2023/12/26 12:57:03;;;;;;;39.90;4.35;;;;;;;;;;5029946;28;20049;-81
2023/12/26 12:59:29;;;;;;;60.95;5.53;;;;;;;;;;5049248;28;20572;-80
2023/12/26 13:01:56;;;;;;;86.18;6.07;;;;;;;;;;5050165;28;20094;-81
2023/12/26 13:04:23;;;;;;;56.00;4.38;;;;;;;;;;5039317;28;20062;-81
2023/12/26 13:06:49;;;;;;;72.13;6.35;;;;;;;;;;5031986;28;20045;-80
2023/12/26 13:09:16;;;;;;;46.53;5.10;;;;;;;;;;5033349;28;20127;-80
2023/12/26 13:11:42;;;;;;;44.78;4.22;;;;;;;;;;5033706;28;20042;-81
2023/12/26 13:14:15;;;;;;;68.50;5.25;;;;;;;;;;5034163;28;20596;-81
2023/12/26 13:16:41;;;;;;;84.45;6.65;;;;;;;;;;5021499;28;20041;-80
2023/12/26 13:19:09;;;;;;;50.58;5.15;;;;;;;;;;5022866;28;20058;-81
2023/12/26 13:21:36;;;;;;;47.40;4.25;;;;;;;;;;5036840;28;20041;-81
2023/12/26 13:24:02;;;;;;;65.28;6.05;;;;;;;;;;5036983;28;20041;-81
2023/12/26 13:26:36;;;;;;;86.60;6.57;;;;;;;;;;5037910;28;20120;-81
2023/12/26 13:29:06;;;;;;;102.68;7.72;;;;;;;;;;5021963;28;20120;-81
2023/12/26 13:31:32;;;;;;;96.40;7.35;;;;;;;;;;5020482;28;20030;-81
2023/12/26 13:33:59;;;;;;;50.58;4.30;;;;;;;;;;5040603;28;20044;-81
2023/12/26 13:36:26;;;;;;;68.80;5.57;;;;;;;;;;5041749;28;20041;-81
2023/12/26 13:38:52;;;;;;;72.85;6.22;;;;;;;;;;5023934;28;20048;-81
2023/12/26 13:41:19;;;;;;;59.17;5.40;;;;;;;;;;5043379;28;20059;-81
2023/12/26 13:43:45;;;;;;;43.33;5.00;;;;;;;;;;5044539;28;20067;-81
2023/12/26 13:46:12;;;;;;;39.58;4.15;;;;;;;;;;5039361;28;20676;-81
2023/12/26 13:48:39;;;;;;;70.85;5.63;;;;;;;;;;5046140;28;20051;-81
2023/12/26 13:51:05;;;;;;;48.67;4.60;;;;;;;;;;5047152;28;20037;-81
2023/12/26 13:53:32;;;;;;;61.85;4.95;;;;;;;;;;5043144;28;20091;-81
2023/12/26 13:55:58;;;;;;;74.80;6.20;;;;;;;;;;5030175;28;20057;-80
2023/12/26 13:58:25;;;;;;;78.10;6.18;;;;;;;;;;5030973;28;20057;-81
2023/12/26 14:00:52;;;;;;;57.45;6.10;;;;;;;;;;5030193;28;20041;-80
2023/12/26 14:03:18;;;;;;;78.82;7.35;;;;;;;;;;5030100;28;20519;-81
2023/12/26 14:05:45;;;;;;;50.47;4.95;;;;;;;;;;5031916;28;20521;-80
2023/12/26 14:08:13;;;;;;;59.10;5.28;;;;;;;;;;5032812;28;20072;-81
2023/12/26 14:10:40;;;;;;;27.33;3.92;;;;;;;;;;5015375;28;20063;-81
2023/12/26 14:13:08;;;;;;;52.53;5.00;;;;;;;;;;5033573;28;20041;-81
2023/12/26 14:15:34;;;;;;;56.25;5.47;;;;;;;;;;5001990;28;20091;-81
2023/12/26 14:18:02;;;;;;;70.40;5.63;;;;;;;;;;5017174;28;20045;-81
2023/12/26 14:20:29;;;;;;;61.67;5.28;;;;;;;;;;5002054;28;20243;-81
2023/12/26 14:22:56;;;;;;;58.60;5.20;;;;;;;;;;5037151;28;20047;-81
2023/12/26 14:25:23;;;;;;;40.95;4.45;;;;;;;;;;5035007;28;20392;-81
2023/12/26 14:27:49;;;;;;;54.20;5.32;;;;;;;;;;5046960;28;20056;-81
2023/12/26 14:30:16;;;;;;;76.90;6.40;;;;;;;;;;5039399;28;20056;-81
2023/12/26 14:32:43;;;;;;;33.55;4.05;;;;;;;;;;5022910;28;20081;-81